Terminal Aerodrome Forecast
Issued by NWS Wakefield, VA

Home | Current Version | Previous Version | Text Only | Print | Product List | Glossary On
Versions: 1 2 3 4 5 6 7 8 9 10 11 12 13 14
000
FTUS41 KAKQ 012300
TAFORF
TAF
KORF 012340Z 0200/0224 18007KT P6SM BKN150 OVC250
     FM020800 20015G24KT 5SM -RA BR BKN025 OVC040
     FM021000 20017G27KT 3SM -RA BR OVC015
     FM021300 21018G29KT 2SM -RA BR OVC008
     FM021700 26015G25KT P6SM OVC015
     FM022000 29014G23KT P6SM BKN050=

USA.gov is the U.S. government's official web portal to all federal, state and local government web resources and services.